createdAt,value
2019-05-09T00:01:14.297Z,7.40
2019-05-09T00:03:44.309Z,8.77
2019-05-09T00:06:13.832Z,11.70
2019-05-09T00:08:44.271Z,9.17
2019-05-09T00:11:14.498Z,7.93
2019-05-09T00:13:43.795Z,10.07
2019-05-09T00:16:14.469Z,8.60
2019-05-09T00:18:44.104Z,10.53
2019-05-09T00:21:27.458Z,10.23
2019-05-09T00:23:56.299Z,11.33
2019-05-09T00:26:25.049Z,9.03
2019-05-09T00:29:07.392Z,8.07
2019-05-09T00:31:43.854Z,9.20
2019-05-09T00:34:30.689Z,9.53
2019-05-09T00:36:59.512Z,9.43
2019-05-09T00:39:28.286Z,7.40
2019-05-09T00:41:57.097Z,9.80
2019-05-09T00:44:27.501Z,14.33
2019-05-09T00:47:14.240Z,8.30
2019-05-09T00:49:43.488Z,8.63
2019-05-09T00:52:14.104Z,7.17
2019-05-09T00:54:43.756Z,9.37
2019-05-09T00:57:15.096Z,8.47
2019-05-09T00:59:44.635Z,7.70
2019-05-09T01:02:14.375Z,11.13
2019-05-09T01:04:43.794Z,9.47
2019-05-09T01:07:13.901Z,11.40
2019-05-09T01:09:43.958Z,7.60
2019-05-09T01:12:14.371Z,8.37
2019-05-09T01:14:43.348Z,7.87
2019-05-09T01:17:13.598Z,9.60
2019-05-09T01:19:43.237Z,7.43
2019-05-09T01:22:13.303Z,10.37
2019-05-09T01:24:44.190Z,9.93
2019-05-09T01:27:14.220Z,12.13
2019-05-09T01:29:43.962Z,7.33
2019-05-09T01:32:17.014Z,9.03
2019-05-09T01:34:45.867Z,8.47
2019-05-09T01:37:14.616Z,6.70
2019-05-09T01:39:44.042Z,9.20
2019-05-09T01:42:13.769Z,8.83
2019-05-09T01:44:44.024Z,10.57
2019-05-09T01:47:14.105Z,5.80
2019-05-09T01:49:43.232Z,7.07
2019-05-09T01:52:13.757Z,8.63
2019-05-09T01:54:43.877Z,7.50
2019-05-09T01:57:13.866Z,7.67
2019-05-09T01:59:44.373Z,8.00
2019-05-09T02:02:14.222Z,7.70
2019-05-09T02:04:43.946Z,8.07
2019-05-09T02:07:13.440Z,8.47
2019-05-09T02:09:43.416Z,9.87
2019-05-09T02:12:14.196Z,10.47
2019-05-09T02:14:47.480Z,10.93
2019-05-09T02:17:17.901Z,8.83
2019-05-09T02:19:47.631Z,10.73
2019-05-09T02:22:18.052Z,10.77
2019-05-09T02:24:46.901Z,8.97
2019-05-09T02:27:15.721Z,11.63
2019-05-09T02:29:44.602Z,9.50
2019-05-09T02:32:14.310Z,9.70
2019-05-09T02:34:44.245Z,9.57
2019-05-09T02:37:13.345Z,10.77
2019-05-09T02:39:42.116Z,12.27
2019-05-09T02:42:14.248Z,11.20
2019-05-09T02:44:41.442Z,10.23
2019-05-09T02:47:17.792Z,15.93
2019-05-09T02:49:48.388Z,17.63
2019-05-09T02:52:19.435Z,14.70
2019-05-09T02:54:49.686Z,10.57
2019-05-09T02:57:18.490Z,14.27
2019-05-09T03:00:01.239Z,12.37
2019-05-09T03:02:31.617Z,19.30
2019-05-09T03:05:00.414Z,15.43
2019-05-09T03:07:49.105Z,16.00
2019-05-09T03:10:22.538Z,16.37
2019-05-09T03:12:51.453Z,17.20
2019-05-09T03:15:20.486Z,17.93
2019-05-09T03:17:49.961Z,15.87
2019-05-09T03:20:23.443Z,17.50
2019-05-09T03:22:52.225Z,17.60
2019-05-09T03:25:20.978Z,17.23
2019-05-09T03:27:58.728Z,21.13
2019-05-09T03:30:34.722Z,18.97
2019-05-09T03:33:03.465Z,20.73
2019-05-09T03:35:32.251Z,20.43
2019-05-09T03:38:08.114Z,20.10
2019-05-09T03:40:37.856Z,20.77
2019-05-09T03:43:07.980Z,25.90
2019-05-09T03:45:38.617Z,15.80
2019-05-09T03:48:09.076Z,12.90
2019-05-09T03:50:38.351Z,12.70
2019-05-09T03:53:08.421Z,17.60
2019-05-09T03:55:38.370Z,14.90
2019-05-09T03:58:08.836Z,9.67
2019-05-09T04:00:37.679Z,13.00
2019-05-09T04:03:08.121Z,15.20
2019-05-09T04:05:37.683Z,13.50
2019-05-09T04:08:19.459Z,10.53
2019-05-09T04:10:50.796Z,15.23
2019-05-09T04:13:21.255Z,13.47
2019-05-09T04:15:50.183Z,14.07
2019-05-09T04:18:18.999Z,15.13
2019-05-09T04:20:48.320Z,19.40
2019-05-09T04:23:18.628Z,12.27
2019-05-09T04:25:49.124Z,17.80
2019-05-09T04:28:17.951Z,14.93
2019-05-09T04:30:47.861Z,16.07
2019-05-09T04:33:17.706Z,11.97
2019-05-09T04:35:47.589Z,15.83
2019-05-09T04:38:17.928Z,14.70
2019-05-09T04:40:48.863Z,13.37
2019-05-09T04:43:26.648Z,10.80
2019-05-09T04:45:49.398Z,13.80
2019-05-09T04:48:37.634Z,11.37
2019-05-09T04:51:07.888Z,12.20
2019-05-09T04:53:37.753Z,18.27
2019-05-09T04:56:17.786Z,13.53
2019-05-09T04:58:48.197Z,12.60
2019-05-09T05:01:24.907Z,13.53
2019-05-09T05:03:57.191Z,10.87
2019-05-09T05:06:27.902Z,14.57
2019-05-09T05:08:58.387Z,16.17
2019-05-09T05:11:27.897Z,13.50
2019-05-09T05:13:58.670Z,15.30
2019-05-09T05:16:27.513Z,15.17
2019-05-09T05:18:58.272Z,20.80
2019-05-09T05:21:28.486Z,10.07
2019-05-09T05:23:58.768Z,12.30
2019-05-09T05:26:27.754Z,14.23
2019-05-09T05:28:58.061Z,10.47
2019-05-09T05:31:28.520Z,13.37
2019-05-09T05:34:14.378Z,16.20
2019-05-09T05:36:43.242Z,14.10
2019-05-09T05:39:12.064Z,13.97
2019-05-09T05:41:40.814Z,14.87
2019-05-09T05:44:09.673Z,12.93
2019-05-09T05:46:42.814Z,11.63
2019-05-09T05:49:15.010Z,9.73
2019-05-09T05:51:49.315Z,10.13
2019-05-09T05:54:21.118Z,12.03
2019-05-09T05:56:49.953Z,13.13
2019-05-09T05:59:18.921Z,13.57
2019-05-09T06:01:48.024Z,11.87
2019-05-09T06:04:18.559Z,16.00
2019-05-09T06:06:48.139Z,12.87
2019-05-09T06:09:18.896Z,14.57
2019-05-09T06:11:48.425Z,15.70
2019-05-09T06:14:18.531Z,10.47
2019-05-09T06:16:48.646Z,17.90
2019-05-09T06:19:18.003Z,12.57
2019-05-09T06:21:48.524Z,11.30
2019-05-09T06:24:17.923Z,12.43
2019-05-09T06:26:47.854Z,14.13
2019-05-09T06:29:17.790Z,9.03
2019-05-09T06:31:48.401Z,10.27
2019-05-09T06:34:18.885Z,11.53
2019-05-09T06:36:48.945Z,12.07
2019-05-09T06:39:18.096Z,7.20
2019-05-09T06:41:48.337Z,7.57
2019-05-09T06:44:20.747Z,11.97
2019-05-09T06:46:53.826Z,7.87
2019-05-09T06:49:28.416Z,8.13
2019-05-09T06:51:54.709Z,9.10
2019-05-09T06:54:23.491Z,14.83
2019-05-09T06:56:52.245Z,6.23
2019-05-09T06:59:21.077Z,13.43
2019-05-09T07:02:00.852Z,6.70
2019-05-09T07:04:34.046Z,6.27
2019-05-09T07:07:17.678Z,6.30
2019-05-09T07:09:58.639Z,8.70
2019-05-09T07:12:27.483Z,9.43
2019-05-09T07:14:58.097Z,7.47
2019-05-09T07:17:31.875Z,8.13
2019-05-09T07:19:58.930Z,7.70
2019-05-09T07:25:24.539Z,8.27
2019-05-09T07:27:53.397Z,7.37
2019-05-09T07:30:39.360Z,7.13
2019-05-09T07:33:12.735Z,6.00
2019-05-09T07:35:42.546Z,10.13
2019-05-09T07:38:11.345Z,8.87
2019-05-09T07:40:40.130Z,8.73
2019-05-09T07:43:09.054Z,5.73
2019-05-09T07:45:38.489Z,7.07
2019-05-09T07:48:07.733Z,6.03
2019-05-09T07:50:38.884Z,9.83
2019-05-09T07:53:08.789Z,6.67
2019-05-09T07:55:38.012Z,9.77
2019-05-09T07:58:28.385Z,7.80
2019-05-09T08:01:00.966Z,9.27
2019-05-09T08:03:27.738Z,8.80
2019-05-09T08:05:58.007Z,5.03
2019-05-09T08:08:27.803Z,7.63
2019-05-09T08:10:58.450Z,6.30
2019-05-09T08:13:29.006Z,6.07
2019-05-09T08:15:58.559Z,5.27
2019-05-09T08:18:28.171Z,7.87
2019-05-09T08:20:57.779Z,5.73
2019-05-09T08:23:27.399Z,6.77
2019-05-09T08:25:57.968Z,6.83
2019-05-09T08:28:28.138Z,5.93
2019-05-09T08:30:58.579Z,7.33
2019-05-09T08:33:28.725Z,6.13
2019-05-09T08:35:58.547Z,4.80
2019-05-09T08:38:28.587Z,4.90
2019-05-09T08:41:10.345Z,9.73
2019-05-09T08:43:40.258Z,6.53
2019-05-09T08:46:09.484Z,8.57
2019-05-09T08:48:38.440Z,5.40
2019-05-09T08:51:09.190Z,6.80
2019-05-09T08:53:38.133Z,4.30
2019-05-09T08:56:09.009Z,5.20
2019-05-09T08:58:38.178Z,5.80
2019-05-09T09:01:09.927Z,4.17
2019-05-09T09:03:37.885Z,4.23
2019-05-09T09:06:08.331Z,5.07
2019-05-09T09:08:38.035Z,5.33
2019-05-09T09:11:08.630Z,4.27
2019-05-09T09:13:37.916Z,4.20
2019-05-09T09:16:15.719Z,4.40
2019-05-09T09:18:38.735Z,5.73
2019-05-09T09:21:08.206Z,4.20
2019-05-09T09:23:44.028Z,5.43
2019-05-09T09:26:08.175Z,3.53
2019-05-09T09:28:37.955Z,5.00
2019-05-09T09:31:08.170Z,4.80
2019-05-09T09:33:37.781Z,3.47
2019-05-09T09:36:08.761Z,5.40
2019-05-09T09:38:37.618Z,4.30
2019-05-09T09:41:07.963Z,4.07
2019-05-09T09:43:38.407Z,8.50
2019-05-09T09:46:14.368Z,5.60
2019-05-09T09:48:38.961Z,5.27
2019-05-09T09:51:08.354Z,6.53
2019-05-09T09:53:38.515Z,5.60
2019-05-09T09:56:08.691Z,6.97
2019-05-09T09:58:38.034Z,5.57
2019-05-09T10:01:28.801Z,5.43
2019-05-09T10:04:19.442Z,7.57
2019-05-09T10:06:43.845Z,7.50
2019-05-09T10:09:12.671Z,7.23
2019-05-09T10:11:41.416Z,4.33
2019-05-09T10:14:11.846Z,7.40
2019-05-09T10:16:58.856Z,5.97
2019-05-09T10:19:35.106Z,6.20
2019-05-09T10:22:05.623Z,6.37
2019-05-09T10:24:34.439Z,5.80
2019-05-09T10:27:08.677Z,3.97
2019-05-09T10:29:38.881Z,5.53
2019-05-09T10:32:09.238Z,5.43
2019-05-09T10:34:38.026Z,4.77
2019-05-09T10:37:07.689Z,9.57
2019-05-09T10:39:38.091Z,6.87
2019-05-09T10:42:28.630Z,3.73
2019-05-09T10:44:59.167Z,4.90
2019-05-09T10:47:29.606Z,6.67
2019-05-09T10:49:58.435Z,6.53
2019-05-09T10:52:28.307Z,7.80
2019-05-09T10:54:58.052Z,7.63
2019-05-09T10:57:31.844Z,6.03
2019-05-09T10:59:58.089Z,6.53
2019-05-09T11:02:27.920Z,7.10
2019-05-09T11:04:57.681Z,4.53
2019-05-09T11:07:28.872Z,4.17
2019-05-09T11:09:58.804Z,5.20
2019-05-09T11:12:27.719Z,6.77
2019-05-09T11:14:59.490Z,5.90
2019-05-09T11:17:28.608Z,6.07
2019-05-09T11:19:58.766Z,6.23
2019-05-09T11:22:29.163Z,6.27
2019-05-09T11:24:58.295Z,5.67
2019-05-09T11:27:29.289Z,5.77
2019-05-09T11:29:58.284Z,3.50
2019-05-09T11:32:27.886Z,6.30
2019-05-09T11:34:57.570Z,4.17
2019-05-09T11:37:26.721Z,4.13
2019-05-09T11:39:57.853Z,7.83
2019-05-09T11:42:28.327Z,4.23
2019-05-09T11:44:58.029Z,4.70
2019-05-09T11:47:37.582Z,8.10
2019-05-09T11:49:58.085Z,5.50
2019-05-09T11:52:28.863Z,3.60
2019-05-09T11:54:58.091Z,5.53
2019-05-09T11:57:28.687Z,7.43
2019-05-09T11:59:57.951Z,3.50
2019-05-09T12:02:27.930Z,4.93
2019-05-09T12:04:56.876Z,5.47
2019-05-09T12:07:25.662Z,5.80
2019-05-09T12:09:54.878Z,4.27
2019-05-09T12:12:23.738Z,5.23
2019-05-09T12:14:52.561Z,7.43
2019-05-09T12:17:21.408Z,6.73
2019-05-09T12:19:50.285Z,4.70
2019-05-09T12:22:19.400Z,5.10
2019-05-09T12:24:48.607Z,4.97
2019-05-09T12:27:18.908Z,4.80
2019-05-09T12:29:48.417Z,5.37
2019-05-09T12:32:18.606Z,7.97
2019-05-09T12:34:48.042Z,5.30
2019-05-09T12:37:18.519Z,3.57
2019-05-09T12:39:48.731Z,7.37
2019-05-09T12:42:18.515Z,3.63
2019-05-09T12:44:49.605Z,6.90
2019-05-09T12:47:19.175Z,4.60
2019-05-09T12:49:48.785Z,5.40
2019-05-09T12:52:18.595Z,4.13
2019-05-09T12:54:48.373Z,4.30
2019-05-09T12:57:19.221Z,6.60
2019-05-09T12:59:52.351Z,5.70
2019-05-09T13:02:18.168Z,5.77
2019-05-09T13:04:47.654Z,4.37
2019-05-09T13:07:16.590Z,3.83
2019-05-09T13:09:45.388Z,7.03
2019-05-09T13:12:14.314Z,3.17
2019-05-09T13:14:43.072Z,5.85
2019-05-09T13:17:13.472Z,9.33
2019-05-09T13:19:43.905Z,7.22
2019-05-09T13:22:12.666Z,5.75
2019-05-09T13:24:41.487Z,4.12
2019-05-09T13:27:10.306Z,8.23
2019-05-09T13:29:39.168Z,3.60
2019-05-09T13:32:08.854Z,4.53
2019-05-09T13:34:38.152Z,4.95
2019-05-09T13:37:09.051Z,5.25
2019-05-09T13:39:39.653Z,7.35
2019-05-09T13:42:08.356Z,6.22
2019-05-09T13:44:41.348Z,6.78
2019-05-09T13:47:10.664Z,5.20
2019-05-09T13:49:39.682Z,3.97
2019-05-09T13:52:10.161Z,2.47
2019-05-09T13:54:39.135Z,6.27
2019-05-09T13:57:08.797Z,5.27
2019-05-09T13:59:37.654Z,5.50
2019-05-09T14:02:06.420Z,5.93
2019-05-09T14:04:35.290Z,3.60
2019-05-09T14:07:04.047Z,4.53
2019-05-09T14:09:32.880Z,3.30
2019-05-09T14:12:01.640Z,5.73
2019-05-09T14:14:30.414Z,4.10
2019-05-09T14:16:59.460Z,3.87
2019-05-09T14:19:40.017Z,8.03
2019-05-09T14:21:58.913Z,4.80
2019-05-09T14:24:28.054Z,6.53
2019-05-09T14:26:58.177Z,3.87
2019-05-09T14:29:31.397Z,3.27
2019-05-09T14:31:57.662Z,4.17
2019-05-09T14:34:26.566Z,3.17
2019-05-09T14:36:58.408Z,6.37
2019-05-09T14:39:27.657Z,2.30
2019-05-09T14:41:57.854Z,5.33
2019-05-09T14:44:27.759Z,9.43
2019-05-09T14:46:58.362Z,3.27
2019-05-09T14:49:39.735Z,3.80
2019-05-09T14:51:58.337Z,3.03
2019-05-09T14:54:28.850Z,3.27
2019-05-09T14:56:58.353Z,5.73
2019-05-09T14:59:28.639Z,8.33
2019-05-09T15:01:59.097Z,4.20
2019-05-09T15:04:28.150Z,8.20
2019-05-09T15:06:57.875Z,6.53
2019-05-09T15:09:28.432Z,5.57
2019-05-09T15:11:58.482Z,5.80
2019-05-09T15:14:28.928Z,3.87
2019-05-09T15:16:57.872Z,4.57
2019-05-09T15:19:28.790Z,8.40
2019-05-09T15:22:00.435Z,4.47
2019-05-09T15:24:28.635Z,8.97
2019-05-09T15:26:58.083Z,8.67
2019-05-09T15:29:29.031Z,7.67
2019-05-09T15:32:05.425Z,7.60
2019-05-09T15:34:28.622Z,5.90
2019-05-09T15:36:58.339Z,8.07
2019-05-09T15:39:27.723Z,5.33
2019-05-09T15:41:57.979Z,5.43
2019-05-09T15:44:26.952Z,5.77
2019-05-09T15:47:12.644Z,2.93
2019-05-09T15:49:41.403Z,8.77
2019-05-09T15:52:10.260Z,7.03
2019-05-09T15:54:40.732Z,3.73
2019-05-09T15:57:09.539Z,8.00
2019-05-09T15:59:38.949Z,3.77
2019-05-09T16:02:09.080Z,7.90
2019-05-09T16:04:40.202Z,3.27
2019-05-09T16:07:08.946Z,6.40
2019-05-09T16:09:37.938Z,8.43
2019-05-09T16:12:07.774Z,9.57
2019-05-09T16:14:38.070Z,8.70
2019-05-09T16:17:07.839Z,4.07
2019-05-09T16:19:37.790Z,8.63
2019-05-09T16:22:07.992Z,6.70
2019-05-09T16:24:38.057Z,6.07
2019-05-09T16:27:08.489Z,6.20
2019-05-09T16:29:38.335Z,5.63
2019-05-09T16:32:08.845Z,5.80
2019-05-09T16:34:38.722Z,4.00
2019-05-09T16:37:07.760Z,8.33
2019-05-09T16:39:37.850Z,8.47
2019-05-09T16:42:06.782Z,5.70
2019-05-09T16:44:37.564Z,11.13
2019-05-09T16:47:08.232Z,6.97
2019-05-09T16:49:38.756Z,11.07
2019-05-09T16:52:07.533Z,8.27
2019-05-09T16:54:38.756Z,8.37
2019-05-09T16:57:08.308Z,5.43
2019-05-09T16:59:38.832Z,6.27
2019-05-09T17:02:18.886Z,6.00
2019-05-09T17:04:38.724Z,7.53
2019-05-09T17:07:08.414Z,9.67
2019-05-09T17:09:40.273Z,7.70
2019-05-09T17:12:09.099Z,14.43
2019-05-09T17:14:37.931Z,9.77
2019-05-09T17:17:08.551Z,7.57
2019-05-09T17:19:37.793Z,8.97
2019-05-09T17:22:17.480Z,11.63
2019-05-09T17:24:48.355Z,10.10
2019-05-09T17:27:18.852Z,10.13
2019-05-09T17:29:48.063Z,12.03
2019-05-09T17:32:18.267Z,14.10
2019-05-09T17:34:47.676Z,13.90
2019-05-09T17:37:17.730Z,9.27
2019-05-09T17:39:46.813Z,7.90
2019-05-09T17:42:18.092Z,12.13
2019-05-09T17:44:48.590Z,16.47
2019-05-09T17:47:17.499Z,7.40
2019-05-09T17:49:48.214Z,22.40
2019-05-09T17:52:18.300Z,27.57
2019-05-09T17:54:48.563Z,28.27
2019-05-09T17:57:18.767Z,25.67
2019-05-09T17:59:48.797Z,29.37
2019-05-09T18:02:17.868Z,34.87
2019-05-09T18:04:48.036Z,30.00
2019-05-09T18:07:17.996Z,30.63
2019-05-09T18:09:48.414Z,32.23
2019-05-09T18:12:18.990Z,33.40
2019-05-09T18:14:47.963Z,30.70
2019-05-09T18:17:17.949Z,33.73
2019-05-09T18:19:46.988Z,31.23
2019-05-09T18:22:15.842Z,37.90
2019-05-09T18:24:44.727Z,33.20
2019-05-09T18:27:13.477Z,27.93
2019-05-09T18:29:42.277Z,28.23
2019-05-09T18:32:12.685Z,32.17
2019-05-09T18:34:41.540Z,34.80
2019-05-09T18:37:10.381Z,34.67
2019-05-09T18:39:39.236Z,39.13
2019-05-09T18:42:08.666Z,35.27
2019-05-09T18:44:37.692Z,42.00
2019-05-09T18:47:07.783Z,43.77
2019-05-09T18:49:36.719Z,41.10
2019-05-09T18:52:05.618Z,44.73
2019-05-09T18:54:34.409Z,41.90
2019-05-09T18:57:03.180Z,45.23
2019-05-09T18:59:32.044Z,44.50
2019-05-09T19:02:00.800Z,47.43
2019-05-09T19:04:29.593Z,45.17
2019-05-09T19:06:58.416Z,49.90
2019-05-09T19:09:27.266Z,41.90
2019-05-09T19:11:56.015Z,46.47
2019-05-09T19:14:24.887Z,46.90
2019-05-09T19:17:01.354Z,29.30
2019-05-09T19:19:40.735Z,23.60
2019-05-09T19:22:21.417Z,25.13
2019-05-09T19:24:40.118Z,27.83
2019-05-09T19:27:09.219Z,15.27
2019-05-09T19:29:38.057Z,22.07
2019-05-09T19:32:06.905Z,22.23
2019-05-09T19:34:35.697Z,11.43
2019-05-09T19:37:04.507Z,12.83
2019-05-09T19:39:33.330Z,14.57
2019-05-09T19:42:02.188Z,11.93
2019-05-09T19:44:31.033Z,10.20
2019-05-09T19:47:01.766Z,14.97
2019-05-09T19:49:30.364Z,15.30
2019-05-09T19:51:59.116Z,18.53
2019-05-09T19:54:27.949Z,12.77
2019-05-09T19:56:56.814Z,11.83
2019-05-09T19:59:25.567Z,10.50
2019-05-09T20:01:54.339Z,15.50
2019-05-09T20:04:23.240Z,12.70
2019-05-09T20:06:52.005Z,7.90
2019-05-09T20:09:28.419Z,8.80
2019-05-09T20:12:01.598Z,8.97
2019-05-09T20:14:31.991Z,10.30
2019-05-09T20:17:00.865Z,9.80
2019-05-09T20:19:29.640Z,12.87
2019-05-09T20:21:58.393Z,9.87
2019-05-09T20:24:27.243Z,13.60
2019-05-09T20:26:56.082Z,7.43
2019-05-09T20:29:24.833Z,8.83
2019-05-09T20:31:53.647Z,8.87
2019-05-09T20:34:22.500Z,7.53
2019-05-09T20:36:51.363Z,9.83
2019-05-09T20:39:20.393Z,8.33
2019-05-09T20:41:49.323Z,7.97
2019-05-09T20:44:18.348Z,10.57
2019-05-09T20:46:47.411Z,8.67
2019-05-09T20:49:16.402Z,10.33
2019-05-09T20:51:45.354Z,7.87
2019-05-09T20:54:20.929Z,8.40
2019-05-09T20:56:44.996Z,9.20
2019-05-09T20:59:14.008Z,8.07
2019-05-09T21:01:43.065Z,8.63
2019-05-09T21:04:12.064Z,9.37
2019-05-09T21:06:41.093Z,9.07
2019-05-09T21:09:10.085Z,11.70
2019-05-09T21:11:39.077Z,8.07
2019-05-09T21:14:08.043Z,8.93
2019-05-09T21:16:37.099Z,9.60
2019-05-09T21:19:06.126Z,7.83
2019-05-09T21:21:35.147Z,9.97
2019-05-09T21:24:04.213Z,11.27
2019-05-09T21:26:33.156Z,10.10
2019-05-09T21:29:02.197Z,9.43
2019-05-09T21:31:31.269Z,9.00
2019-05-09T21:34:00.293Z,11.37
2019-05-09T21:36:29.112Z,9.03
2019-05-09T21:38:57.919Z,9.50
2019-05-09T21:41:26.735Z,9.80
2019-05-09T21:43:55.567Z,7.80
2019-05-09T21:46:24.450Z,9.03
2019-05-09T21:48:53.222Z,12.90
2019-05-09T21:51:22.061Z,8.43
2019-05-09T21:53:50.874Z,12.80
2019-05-09T21:56:20.104Z,10.27
2019-05-09T21:58:48.874Z,20.20
2019-05-09T22:01:19.535Z,13.60
2019-05-09T22:03:48.461Z,12.40
2019-05-09T22:06:17.289Z,9.83
2019-05-09T22:08:46.169Z,8.33
2019-05-09T22:11:15.005Z,10.47
2019-05-09T22:13:43.853Z,11.37
2019-05-09T22:16:12.709Z,12.47
2019-05-09T22:18:41.537Z,9.63
2019-05-09T22:21:11.941Z,9.97
2019-05-09T22:23:55.148Z,9.77
2019-05-09T22:26:11.406Z,10.63
2019-05-09T22:28:40.185Z,12.27
2019-05-09T22:31:09.040Z,10.87
2019-05-09T22:33:37.870Z,12.37
2019-05-09T22:36:06.712Z,10.53
2019-05-09T22:38:35.517Z,11.50
2019-05-09T22:41:04.296Z,9.53
2019-05-09T22:43:33.125Z,10.97
2019-05-09T22:46:01.987Z,11.57
2019-05-09T22:48:30.798Z,12.57
2019-05-09T22:50:59.560Z,11.37
2019-05-09T22:53:28.343Z,10.93
2019-05-09T22:55:57.104Z,12.20
2019-05-09T22:58:25.924Z,9.50
2019-05-09T23:00:54.775Z,9.00
2019-05-09T23:03:23.610Z,12.23
2019-05-09T23:05:52.653Z,11.63
2019-05-09T23:08:21.538Z,13.67
2019-05-09T23:10:53.421Z,11.90
2019-05-09T23:13:20.799Z,12.80
2019-05-09T23:15:49.683Z,12.80
2019-05-09T23:18:18.566Z,10.10
2019-05-09T23:20:48.979Z,11.57
2019-05-09T23:23:22.333Z,13.30
2019-05-09T23:25:51.082Z,10.40
2019-05-09T23:28:19.892Z,14.33
2019-05-09T23:30:50.297Z,13.27
2019-05-09T23:33:19.620Z,10.80
2019-05-09T23:35:48.501Z,11.43
2019-05-09T23:38:17.292Z,10.70
2019-05-09T23:40:46.038Z,11.33
2019-05-09T23:43:14.821Z,10.43
2019-05-09T23:45:43.935Z,11.90
2019-05-09T23:48:12.851Z,10.90
2019-05-09T23:50:41.783Z,12.60
2019-05-09T23:53:10.669Z,14.50
2019-05-09T23:55:56.923Z,14.10
2019-05-09T23:58:43.367Z,13.60
